createdAt,value
2023-03-29T00:02:05.112Z,62.75
2023-03-29T00:04:32.003Z,62.38
2023-03-29T00:07:04.057Z,62.53
2023-03-29T00:09:33.322Z,63.22
2023-03-29T00:12:01.395Z,63.80
2023-03-29T00:14:30.824Z,63.15
2023-03-29T00:16:58.342Z,64.14
2023-03-29T00:19:25.441Z,64.68
2023-03-29T00:21:52.146Z,64.63
2023-03-29T00:24:18.949Z,64.43
2023-03-29T00:26:45.863Z,64.31
2023-03-29T00:29:12.666Z,63.44
2023-03-29T00:31:39.680Z,65.03
2023-03-29T00:34:06.497Z,64.03
2023-03-29T00:36:33.216Z,63.44
2023-03-29T00:39:00.031Z,64.74
2023-03-29T00:41:27.253Z,64.77
2023-03-29T00:44:01.495Z,64.64
2023-03-29T00:46:30.507Z,64.91
2023-03-29T00:49:05.952Z,65.10
2023-03-29T00:51:36.434Z,65.09
2023-03-29T00:54:06.302Z,65.36
2023-03-29T00:56:37.105Z,65.04
2023-03-29T00:59:09.919Z,64.20
2023-03-29T01:01:42.535Z,63.92
2023-03-29T01:04:24.041Z,63.41
2023-03-29T01:07:01.233Z,63.81
2023-03-29T01:09:30.655Z,64.00
2023-03-29T01:12:02.481Z,64.46
2023-03-29T01:14:39.909Z,65.01
2023-03-29T01:17:07.965Z,64.97
2023-03-29T01:19:42.190Z,65.33
2023-03-29T01:22:29.637Z,63.84
2023-03-29T01:25:06.025Z,64.26
2023-03-29T01:27:54.992Z,62.62
2023-03-29T01:30:54.721Z,62.75
2023-03-29T01:33:26.991Z,63.40
2023-03-29T01:36:03.391Z,62.69
2023-03-29T01:38:47.824Z,63.96
2023-03-29T01:41:14.741Z,62.85
2023-03-29T01:43:51.515Z,63.33
2023-03-29T01:46:59.895Z,64.24
2023-03-29T01:49:39.969Z,63.00
2023-03-29T01:52:14.907Z,62.87
2023-03-29T01:54:47.011Z,63.37
2023-03-29T01:57:14.730Z,63.82
2023-03-29T01:59:43.750Z,64.48
2023-03-29T02:02:14.819Z,65.41
2023-03-29T02:04:48.095Z,64.35
2023-03-29T02:07:17.230Z,65.04
2023-03-29T02:09:45.359Z,65.11
2023-03-29T02:12:13.046Z,65.50
2023-03-29T02:14:40.388Z,64.50
2023-03-29T02:17:28.278Z,64.39
2023-03-29T02:20:02.631Z,64.94
2023-03-29T02:22:40.032Z,64.95
2023-03-29T02:25:09.204Z,65.16
2023-03-29T02:27:38.080Z,64.14
2023-03-29T02:30:10.816Z,65.06
2023-03-29T02:32:53.717Z,64.92
2023-03-29T02:35:34.333Z,64.35
2023-03-29T02:38:04.592Z,65.15
2023-03-29T02:40:32.935Z,65.98
2023-03-29T02:43:02.021Z,64.78
2023-03-29T02:45:31.804Z,64.84
2023-03-29T02:48:03.407Z,64.62
2023-03-29T02:50:37.526Z,64.85
2023-03-29T02:53:13.148Z,65.61
2023-03-29T02:55:42.033Z,66.24
2023-03-29T02:58:09.225Z,65.83
2023-03-29T03:00:42.419Z,65.89
2023-03-29T03:03:10.197Z,66.02
2023-03-29T03:05:38.212Z,66.23
2023-03-29T03:08:07.498Z,65.87
2023-03-29T03:10:35.547Z,66.23
2023-03-29T03:13:04.055Z,66.13
2023-03-29T03:15:35.530Z,66.10
2023-03-29T03:18:04.182Z,66.40
2023-03-29T03:20:31.930Z,66.22
2023-03-29T03:22:58.695Z,67.08
2023-03-29T03:25:25.648Z,67.13
2023-03-29T03:27:53.114Z,67.17
2023-03-29T03:30:22.275Z,67.74
2023-03-29T03:33:14.912Z,67.29
2023-03-29T03:35:42.514Z,67.15
2023-03-29T03:38:10.885Z,67.09
2023-03-29T03:40:38.318Z,66.73
2023-03-29T03:43:05.089Z,67.17
2023-03-29T03:45:31.844Z,67.91
2023-03-29T03:48:09.670Z,68.94
2023-03-29T03:50:54.448Z,68.06
2023-03-29T03:53:22.351Z,68.54
2023-03-29T03:56:24.150Z,68.49
2023-03-29T03:59:11.143Z,68.72
2023-03-29T04:01:47.869Z,68.69
2023-03-29T04:04:19.682Z,68.81
2023-03-29T04:07:04.025Z,69.33
2023-03-29T04:09:38.890Z,69.18
2023-03-29T04:12:24.932Z,69.93
2023-03-29T04:14:52.074Z,69.30
2023-03-29T04:17:22.821Z,69.99
2023-03-29T04:19:59.133Z,70.19
2023-03-29T04:22:30.495Z,70.53
2023-03-29T04:24:58.156Z,70.57
2023-03-29T04:27:44.036Z,69.99
2023-03-29T04:30:47.243Z,70.75
2023-03-29T04:33:19.244Z,70.82
2023-03-29T04:35:52.035Z,70.77
2023-03-29T04:38:23.029Z,71.06
2023-03-29T04:40:51.767Z,71.59
2023-03-29T04:43:48.629Z,72.37
2023-03-29T04:46:26.328Z,72.41
2023-03-29T04:49:11.679Z,72.13
2023-03-29T04:51:41.292Z,71.65
2023-03-29T04:54:09.578Z,71.97
2023-03-29T04:56:59.873Z,72.16
2023-03-29T04:59:38.760Z,71.94
2023-03-29T05:02:16.273Z,71.98
2023-03-29T05:04:46.731Z,72.35
2023-03-29T05:07:17.858Z,72.07
2023-03-29T05:09:45.215Z,72.65
2023-03-29T05:12:12.904Z,72.73
2023-03-29T05:14:48.920Z,73.49
2023-03-29T05:17:16.157Z,73.73
2023-03-29T05:19:43.672Z,73.81
2023-03-29T05:22:10.473Z,73.94
2023-03-29T05:24:37.752Z,73.87
2023-03-29T05:27:11.718Z,73.50
2023-03-29T05:29:38.934Z,73.95
2023-03-29T05:32:20.669Z,73.75
2023-03-29T05:34:47.493Z,74.59
2023-03-29T05:37:14.984Z,74.16
2023-03-29T05:40:10.376Z,74.74
2023-03-29T05:42:53.919Z,74.71
2023-03-29T05:45:22.822Z,74.82
2023-03-29T05:47:51.143Z,74.79
2023-03-29T05:50:17.975Z,74.23
2023-03-29T05:52:44.800Z,74.13
2023-03-29T05:55:11.979Z,74.47
2023-03-29T05:57:39.703Z,73.87
2023-03-29T06:00:17.658Z,73.77
2023-03-29T06:02:44.413Z,73.12
2023-03-29T06:05:11.352Z,73.40
2023-03-29T06:07:56.591Z,74.10
2023-03-29T06:10:38.853Z,73.03
2023-03-29T06:13:19.013Z,73.12
2023-03-29T06:15:46.095Z,73.54
2023-03-29T06:18:13.300Z,73.13
2023-03-29T06:20:41.428Z,73.51
2023-03-29T06:23:13.207Z,73.26
2023-03-29T06:25:40.464Z,73.09
2023-03-29T06:28:07.649Z,72.36
2023-03-29T06:30:35.396Z,72.35
2023-03-29T06:33:02.495Z,71.61
2023-03-29T06:36:07.854Z,71.30
2023-03-29T06:38:35.223Z,71.47
2023-03-29T06:41:04.491Z,71.43
2023-03-29T06:43:48.015Z,71.33
2023-03-29T06:46:16.966Z,71.18
2023-03-29T06:48:54.074Z,70.02
2023-03-29T06:51:23.395Z,70.11
2023-03-29T06:53:50.769Z,69.59
2023-03-29T06:56:17.515Z,69.28
2023-03-29T06:58:54.535Z,68.55
2023-03-29T07:01:34.632Z,68.95
2023-03-29T07:04:12.333Z,69.12
2023-03-29T07:07:04.058Z,68.98
2023-03-29T07:09:35.816Z,68.20
2023-03-29T07:12:22.662Z,68.86
2023-03-29T07:14:50.163Z,68.64
2023-03-29T07:17:18.498Z,68.17
2023-03-29T07:19:45.764Z,68.25
2023-03-29T07:22:51.569Z,68.41
2023-03-29T07:25:23.677Z,68.01
2023-03-29T07:27:52.072Z,67.32
2023-03-29T07:30:22.754Z,67.59
2023-03-29T07:32:51.039Z,66.43
2023-03-29T07:35:26.663Z,66.77
2023-03-29T07:37:55.934Z,66.03
2023-03-29T07:40:24.400Z,66.00
2023-03-29T07:43:14.335Z,66.72
2023-03-29T07:45:42.319Z,66.76
2023-03-29T07:48:11.415Z,66.54
2023-03-29T07:50:51.513Z,66.40
2023-03-29T07:53:23.243Z,65.92
2023-03-29T07:55:54.732Z,65.60
2023-03-29T07:58:41.871Z,66.00
2023-03-29T08:01:10.015Z,65.21
2023-03-29T08:03:56.162Z,65.64
2023-03-29T08:06:35.130Z,65.02
2023-03-29T08:09:01.864Z,65.03
2023-03-29T08:11:28.882Z,64.10
2023-03-29T08:14:01.898Z,65.44
2023-03-29T08:17:03.664Z,65.41
2023-03-29T08:19:33.181Z,65.25
2023-03-29T08:22:04.638Z,66.01
2023-03-29T08:25:00.406Z,65.77
2023-03-29T08:27:33.013Z,65.83
2023-03-29T08:30:00.553Z,65.98
2023-03-29T08:32:27.576Z,65.28
2023-03-29T08:34:55.094Z,64.54
2023-03-29T08:37:25.956Z,65.13
2023-03-29T08:39:55.402Z,65.39
2023-03-29T08:43:01.694Z,65.54
2023-03-29T08:46:06.317Z,65.67
2023-03-29T08:48:42.323Z,65.47
2023-03-29T08:51:22.332Z,65.23
2023-03-29T08:54:02.504Z,65.20
2023-03-29T08:57:04.277Z,64.93
2023-03-29T08:59:37.351Z,64.75
2023-03-29T09:02:17.731Z,64.88
2023-03-29T09:04:48.906Z,64.63
2023-03-29T09:07:38.641Z,66.04
2023-03-29T09:10:06.575Z,64.68
2023-03-29T09:13:36.851Z,65.14
2023-03-29T09:16:18.512Z,64.57
2023-03-29T09:19:03.752Z,64.86
2023-03-29T09:21:39.203Z,63.83
2023-03-29T09:24:30.565Z,64.20
2023-03-29T09:27:18.925Z,64.69
2023-03-29T09:30:13.542Z,64.07
2023-03-29T09:33:03.323Z,63.85
2023-03-29T09:35:58.384Z,62.00
2023-03-29T09:38:25.289Z,60.96
2023-03-29T09:40:56.631Z,61.83
2023-03-29T09:43:32.814Z,61.35
2023-03-29T09:46:15.910Z,60.60
2023-03-29T09:48:44.350Z,60.43
2023-03-29T09:51:13.604Z,60.50
2023-03-29T09:53:40.843Z,60.18
2023-03-29T09:56:28.705Z,59.87
2023-03-29T09:59:04.191Z,59.06
2023-03-29T10:01:39.598Z,59.35
2023-03-29T10:04:12.332Z,59.27
2023-03-29T10:06:50.294Z,59.00
2023-03-29T10:09:22.140Z,59.99
2023-03-29T10:11:55.173Z,61.13
2023-03-29T10:14:38.246Z,60.38
2023-03-29T10:17:21.824Z,59.75
2023-03-29T10:19:57.187Z,60.03
2023-03-29T10:22:32.662Z,59.75
2023-03-29T10:24:59.310Z,58.33
2023-03-29T10:27:28.467Z,58.84
2023-03-29T10:29:58.349Z,57.94
2023-03-29T10:32:31.594Z,56.88
2023-03-29T10:35:09.592Z,56.28
2023-03-29T10:37:41.484Z,55.49
2023-03-29T10:40:22.200Z,54.49
2023-03-29T10:42:50.710Z,54.75
2023-03-29T10:45:25.715Z,53.96
2023-03-29T10:47:55.779Z,54.43
2023-03-29T10:50:23.353Z,54.88
2023-03-29T10:52:50.513Z,54.20
2023-03-29T10:55:17.278Z,53.50
2023-03-29T10:58:15.476Z,52.77
2023-03-29T11:00:57.936Z,51.76
2023-03-29T11:03:46.957Z,50.97
2023-03-29T11:06:32.833Z,51.66
2023-03-29T11:09:04.259Z,51.67
2023-03-29T11:12:15.095Z,51.23
2023-03-29T11:15:03.168Z,50.35
2023-03-29T11:17:53.061Z,51.11
2023-03-29T11:20:24.107Z,49.94
2023-03-29T11:23:07.278Z,49.88
2023-03-29T11:25:58.801Z,49.94
2023-03-29T11:28:38.878Z,50.12
2023-03-29T11:31:40.702Z,50.09
2023-03-29T11:34:24.735Z,51.25
2023-03-29T11:37:10.925Z,51.11
2023-03-29T11:39:53.031Z,51.34
2023-03-29T11:42:28.625Z,50.85
2023-03-29T11:44:58.218Z,49.79
2023-03-29T11:47:31.595Z,50.61
2023-03-29T11:50:06.183Z,50.27
2023-03-29T11:52:39.905Z,50.77
2023-03-29T11:55:26.097Z,49.96
2023-03-29T11:58:27.506Z,49.32
2023-03-29T12:01:03.152Z,50.06
2023-03-29T12:04:01.518Z,49.80
2023-03-29T12:06:36.014Z,49.19
2023-03-29T12:09:07.065Z,49.31
2023-03-29T12:11:53.093Z,50.01
2023-03-29T12:14:28.081Z,50.71
2023-03-29T12:17:03.463Z,50.07
2023-03-29T12:19:43.715Z,50.18
2023-03-29T12:22:11.244Z,49.66
2023-03-29T12:24:45.114Z,48.66
2023-03-29T12:27:20.571Z,48.47
2023-03-29T12:30:12.638Z,48.51
2023-03-29T12:32:58.221Z,48.53
2023-03-29T12:36:05.822Z,47.63
2023-03-29T12:39:17.639Z,47.99
2023-03-29T12:42:23.390Z,47.01
2023-03-29T12:45:19.956Z,47.36
2023-03-29T12:47:48.876Z,47.54
2023-03-29T12:50:28.902Z,47.39
2023-03-29T12:53:04.355Z,47.75
2023-03-29T12:55:48.634Z,47.09
2023-03-29T12:59:01.891Z,46.90
2023-03-29T13:01:32.040Z,46.64
2023-03-29T13:03:59.735Z,46.00
2023-03-29T13:06:31.438Z,45.92
2023-03-29T13:09:20.052Z,46.02
2023-03-29T13:11:53.609Z,46.39
2023-03-29T13:14:23.884Z,45.83
2023-03-29T13:16:50.697Z,46.40
2023-03-29T13:19:39.037Z,45.81
2023-03-29T13:22:09.786Z,45.54
2023-03-29T13:24:54.776Z,46.02
2023-03-29T13:27:45.395Z,45.67
2023-03-29T13:30:44.048Z,46.17
2023-03-29T13:33:34.507Z,45.67
2023-03-29T13:36:37.620Z,46.04
2023-03-29T13:39:07.544Z,45.33
2023-03-29T13:41:40.222Z,45.45
2023-03-29T13:44:27.724Z,46.04
2023-03-29T13:47:16.404Z,46.94
2023-03-29T13:49:52.467Z,47.26
2023-03-29T13:52:33.061Z,47.99
2023-03-29T13:55:17.591Z,47.56
2023-03-29T13:57:52.579Z,47.83
2023-03-29T14:00:26.451Z,48.45
2023-03-29T14:03:01.528Z,48.01
2023-03-29T14:05:32.685Z,48.54
2023-03-29T14:08:09.626Z,49.39
2023-03-29T14:10:41.321Z,48.93
2023-03-29T14:13:17.356Z,48.66
2023-03-29T14:15:55.894Z,48.33
2023-03-29T14:18:25.739Z,48.44
2023-03-29T14:20:55.406Z,48.67
2023-03-29T14:23:30.032Z,49.05
2023-03-29T14:26:13.255Z,49.81
2023-03-29T14:28:56.500Z,49.79
2023-03-29T14:31:26.236Z,49.75
2023-03-29T14:33:54.550Z,49.92
2023-03-29T14:36:22.448Z,50.06
2023-03-29T14:38:53.856Z,50.78
2023-03-29T14:41:23.197Z,51.00
2023-03-29T14:43:51.561Z,50.86
2023-03-29T14:46:21.381Z,51.22
2023-03-29T14:48:48.436Z,51.30
2023-03-29T14:51:15.567Z,52.02
2023-03-29T14:53:42.847Z,52.29
2023-03-29T14:56:15.745Z,52.68
2023-03-29T14:58:46.570Z,53.36
2023-03-29T15:01:18.715Z,53.47
2023-03-29T15:04:11.446Z,53.56
2023-03-29T15:06:40.855Z,53.37
2023-03-29T15:09:14.708Z,53.76
2023-03-29T15:11:41.610Z,53.31
2023-03-29T15:14:13.750Z,54.36
2023-03-29T15:16:43.573Z,54.69
2023-03-29T15:19:18.569Z,54.75
2023-03-29T15:21:48.182Z,55.57
2023-03-29T15:24:33.857Z,56.24
2023-03-29T15:27:13.441Z,57.20
2023-03-29T15:29:42.894Z,57.57
2023-03-29T15:32:19.809Z,58.50
2023-03-29T15:34:47.378Z,59.95
2023-03-29T15:37:14.242Z,60.58
2023-03-29T15:39:44.037Z,61.16
2023-03-29T15:42:11.172Z,61.99
2023-03-29T15:44:38.972Z,62.16
2023-03-29T15:47:12.587Z,61.91
2023-03-29T15:49:39.501Z,61.82
2023-03-29T15:52:06.156Z,61.39
2023-03-29T15:54:33.795Z,60.73
2023-03-29T15:57:03.490Z,59.81
2023-03-29T15:59:31.985Z,59.89
2023-03-29T16:01:59.474Z,59.97
2023-03-29T16:04:26.407Z,59.99
2023-03-29T16:06:54.643Z,60.27
2023-03-29T16:09:22.557Z,60.07
2023-03-29T16:11:49.914Z,60.47
2023-03-29T16:14:29.748Z,59.76
2023-03-29T16:17:00.797Z,59.60
2023-03-29T16:19:28.642Z,59.15
2023-03-29T16:21:55.891Z,58.69
2023-03-29T16:24:26.177Z,58.49
2023-03-29T16:26:56.499Z,58.22
2023-03-29T16:29:27.499Z,57.51
2023-03-29T16:31:54.666Z,57.21
2023-03-29T16:34:22.669Z,56.90
2023-03-29T16:36:50.612Z,57.16
2023-03-29T16:39:18.178Z,56.76
2023-03-29T16:41:48.204Z,56.47
2023-03-29T16:44:23.591Z,56.09
2023-03-29T16:46:53.748Z,56.38
2023-03-29T16:49:20.625Z,56.94
2023-03-29T16:51:48.193Z,57.09
2023-03-29T16:54:17.074Z,57.10
2023-03-29T16:56:44.365Z,57.28
2023-03-29T16:59:11.923Z,56.69
2023-03-29T17:01:40.609Z,56.67
2023-03-29T17:04:07.886Z,57.49
2023-03-29T17:06:34.620Z,57.30
2023-03-29T17:09:01.444Z,56.93
2023-03-29T17:11:28.987Z,57.75
2023-03-29T17:13:56.372Z,57.29
2023-03-29T17:16:23.149Z,56.94
2023-03-29T17:18:50.069Z,57.14
2023-03-29T17:21:16.936Z,56.44
2023-03-29T17:23:43.733Z,57.17
2023-03-29T17:26:11.879Z,56.40
2023-03-29T17:28:38.762Z,56.88
2023-03-29T17:31:09.727Z,55.79
2023-03-29T17:33:37.349Z,56.17
2023-03-29T17:36:05.568Z,56.24
2023-03-29T17:38:34.087Z,55.98
2023-03-29T17:41:02.624Z,56.26
2023-03-29T17:43:29.419Z,56.34
2023-03-29T17:45:56.686Z,56.67
2023-03-29T17:48:24.300Z,55.99
2023-03-29T17:50:51.530Z,56.86
2023-03-29T17:53:18.526Z,56.71
2023-03-29T17:55:45.283Z,56.59
2023-03-29T17:58:12.161Z,56.06
2023-03-29T18:00:38.885Z,56.24
2023-03-29T18:03:05.810Z,55.63
2023-03-29T18:05:34.871Z,57.13
2023-03-29T18:08:02.200Z,56.75
2023-03-29T18:10:29.059Z,56.73
2023-03-29T18:12:55.905Z,56.52
2023-03-29T18:15:22.925Z,57.39
2023-03-29T18:17:49.768Z,56.99
2023-03-29T18:20:17.024Z,56.38
2023-03-29T18:22:44.073Z,56.81
2023-03-29T18:25:11.159Z,57.07
2023-03-29T18:27:39.183Z,57.41
2023-03-29T18:30:07.365Z,57.90
2023-03-29T18:32:34.334Z,56.15
2023-03-29T18:35:02.659Z,55.88
2023-03-29T18:37:30.526Z,56.33
2023-03-29T18:39:57.327Z,56.53
2023-03-29T18:42:24.143Z,56.80
2023-03-29T18:44:51.353Z,56.63
2023-03-29T18:47:18.420Z,56.14
2023-03-29T18:49:45.553Z,56.21
2023-03-29T18:52:12.521Z,56.83
2023-03-29T18:54:39.374Z,56.57
2023-03-29T18:57:06.474Z,56.87
2023-03-29T18:59:36.002Z,56.92
2023-03-29T19:02:03.298Z,57.37
2023-03-29T19:04:30.225Z,56.69
2023-03-29T19:06:57.100Z,56.97
2023-03-29T19:09:23.782Z,56.59
2023-03-29T19:11:51.061Z,55.95
2023-03-29T19:14:23.327Z,56.67
2023-03-29T19:16:51.748Z,56.10
2023-03-29T19:19:19.534Z,56.36
2023-03-29T19:21:49.634Z,57.12
2023-03-29T19:24:16.912Z,56.56
2023-03-29T19:26:44.496Z,56.04
2023-03-29T19:29:11.771Z,55.45
2023-03-29T19:31:38.713Z,56.19
2023-03-29T19:34:06.807Z,56.09
2023-03-29T19:36:33.788Z,55.18
2023-03-29T19:39:00.850Z,54.66
2023-03-29T19:41:28.304Z,54.60
2023-03-29T19:43:55.467Z,54.83
2023-03-29T19:46:22.661Z,54.00
2023-03-29T19:48:51.704Z,54.43
2023-03-29T19:51:18.513Z,54.19
2023-03-29T19:53:45.291Z,54.27
2023-03-29T19:56:14.372Z,54.15
2023-03-29T19:58:41.510Z,54.51
2023-03-29T20:01:08.424Z,54.18
2023-03-29T20:03:35.993Z,54.11
2023-03-29T20:06:03.033Z,54.27
2023-03-29T20:08:30.063Z,54.18
2023-03-29T20:10:59.926Z,53.99
2023-03-29T20:13:37.569Z,53.87
2023-03-29T20:16:07.012Z,54.39
2023-03-29T20:18:33.955Z,54.45
2023-03-29T20:21:01.887Z,54.52
2023-03-29T20:23:29.859Z,54.54
2023-03-29T20:25:57.075Z,54.47
2023-03-29T20:28:24.599Z,55.03
2023-03-29T20:30:52.618Z,54.60
2023-03-29T20:33:22.354Z,54.95
2023-03-29T20:35:49.294Z,54.47
2023-03-29T20:38:16.125Z,54.11
2023-03-29T20:40:42.815Z,54.94
2023-03-29T20:43:18.385Z,54.33
2023-03-29T20:45:52.594Z,55.28
2023-03-29T20:48:23.059Z,54.66
2023-03-29T20:50:51.287Z,54.93
2023-03-29T20:53:20.102Z,54.67
2023-03-29T20:55:47.929Z,55.26
2023-03-29T20:58:15.746Z,55.31
2023-03-29T21:00:43.607Z,55.36
2023-03-29T21:03:11.044Z,56.36
2023-03-29T21:05:38.902Z,55.01
2023-03-29T21:08:05.999Z,55.27
2023-03-29T21:10:32.818Z,55.63
2023-03-29T21:13:00.343Z,56.26
2023-03-29T21:15:29.316Z,55.52
2023-03-29T21:17:56.286Z,55.56
2023-03-29T21:20:24.124Z,54.84
2023-03-29T21:22:51.172Z,54.76
2023-03-29T21:25:18.860Z,55.37
2023-03-29T21:27:45.636Z,56.02
2023-03-29T21:30:12.769Z,56.19
2023-03-29T21:32:39.792Z,55.27
2023-03-29T21:35:07.100Z,55.61
2023-03-29T21:37:34.206Z,55.62
2023-03-29T21:40:01.238Z,55.39
2023-03-29T21:42:27.893Z,55.32
2023-03-29T21:44:54.532Z,55.04
2023-03-29T21:47:21.310Z,54.83
2023-03-29T21:49:48.181Z,55.26
2023-03-29T21:52:15.115Z,55.25
2023-03-29T21:54:41.885Z,55.18
2023-03-29T21:57:08.742Z,55.55
2023-03-29T21:59:35.733Z,55.35
2023-03-29T22:02:02.503Z,55.66
2023-03-29T22:04:36.889Z,55.18
2023-03-29T22:07:05.103Z,55.04
2023-03-29T22:09:35.005Z,54.65
2023-03-29T22:12:02.954Z,54.40
2023-03-29T22:14:34.852Z,54.39
2023-03-29T22:17:02.999Z,54.32
2023-03-29T22:19:29.685Z,54.16
2023-03-29T22:22:01.310Z,54.13
2023-03-29T22:24:29.031Z,53.97
2023-03-29T22:26:55.807Z,53.68
2023-03-29T22:29:22.566Z,53.84
2023-03-29T22:31:49.349Z,53.63
2023-03-29T22:34:16.386Z,53.42
2023-03-29T22:36:43.074Z,53.89
2023-03-29T22:39:11.138Z,53.77
2023-03-29T22:41:37.981Z,53.89
2023-03-29T22:44:04.997Z,54.25
2023-03-29T22:46:31.859Z,54.10
2023-03-29T22:48:58.614Z,54.03
2023-03-29T22:51:25.578Z,54.60
2023-03-29T22:53:52.394Z,54.05
2023-03-29T22:56:19.122Z,54.41
2023-03-29T22:58:46.142Z,54.10
2023-03-29T23:01:13.084Z,54.15
2023-03-29T23:03:39.875Z,53.93
2023-03-29T23:06:06.786Z,54.06
2023-03-29T23:08:34.538Z,53.56
2023-03-29T23:11:02.113Z,53.31
2023-03-29T23:13:29.965Z,53.85
2023-03-29T23:15:58.941Z,52.80
2023-03-29T23:18:28.561Z,52.79
2023-03-29T23:20:57.075Z,52.79
2023-03-29T23:23:25.866Z,53.07
2023-03-29T23:25:53.870Z,53.27
2023-03-29T23:28:23.361Z,53.78
2023-03-29T23:31:09.827Z,54.00
2023-03-29T23:33:41.589Z,54.59
2023-03-29T23:36:11.647Z,55.87
2023-03-29T23:38:39.734Z,57.06
2023-03-29T23:41:10.362Z,57.45
2023-03-29T23:43:42.288Z,57.92
2023-03-29T23:46:11.968Z,57.76
2023-03-29T23:48:39.256Z,58.32
2023-03-29T23:51:08.309Z,58.05
2023-03-29T23:53:35.192Z,58.70
2023-03-29T23:56:05.006Z,58.90
2023-03-29T23:58:34.420Z,59.41
